sensor_id;sensor_type;location;lat;lon;timestamp;temperature;humidity
65231;DHT22;51813;40.666;16.602;2023-03-01T00:02:20;17.10;62.30
65231;DHT22;51813;40.666;16.602;2023-03-01T00:04:46;17.10;62.20
65231;DHT22;51813;40.666;16.602;2023-03-01T00:07:12;17.10;62.10
65231;DHT22;51813;40.666;16.602;2023-03-01T00:09:37;17.00;62.50
65231;DHT22;51813;40.666;16.602;2023-03-01T00:12:04;17.10;62.40
65231;DHT22;51813;40.666;16.602;2023-03-01T00:14:29;17.00;62.20
65231;DHT22;51813;40.666;16.602;2023-03-01T00:16:55;17.00;62.70
65231;DHT22;51813;40.666;16.602;2023-03-01T00:19:21;17.00;62.50
65231;DHT22;51813;40.666;16.602;2023-03-01T00:21:50;17.00;62.50
65231;DHT22;51813;40.666;16.602;2023-03-01T00:24:15;17.00;62.30
65231;DHT22;51813;40.666;16.602;2023-03-01T00:26:42;17.00;62.30
65231;DHT22;51813;40.666;16.602;2023-03-01T00:29:07;17.10;62.20
65231;DHT22;51813;40.666;16.602;2023-03-01T00:31:33;17.00;62.30
65231;DHT22;51813;40.666;16.602;2023-03-01T00:34:03;17.10;62.20
65231;DHT22;51813;40.666;16.602;2023-03-01T00:36:32;17.10;62.30
65231;DHT22;51813;40.666;16.602;2023-03-01T00:38:58;17.10;62.20
65231;DHT22;51813;40.666;16.602;2023-03-01T00:41:23;17.10;62.20
65231;DHT22;51813;40.666;16.602;2023-03-01T00:43:52;17.10;62.30
65231;DHT22;51813;40.666;16.602;2023-03-01T00:46:19;17.10;62.20
65231;DHT22;51813;40.666;16.602;2023-03-01T00:48:45;17.10;62.20
65231;DHT22;51813;40.666;16.602;2023-03-01T00:51:17;17.10;62.10
65231;DHT22;51813;40.666;16.602;2023-03-01T00:53:43;17.10;62.20
65231;DHT22;51813;40.666;16.602;2023-03-01T00:56:11;17.10;62.20
65231;DHT22;51813;40.666;16.602;2023-03-01T00:58:38;17.10;62.20
65231;DHT22;51813;40.666;16.602;2023-03-01T01:01:12;17.10;62.20
65231;DHT22;51813;40.666;16.602;2023-03-01T01:03:47;17.10;62.20
65231;DHT22;51813;40.666;16.602;2023-03-01T01:06:18;17.10;62.20
65231;DHT22;51813;40.666;16.602;2023-03-01T01:08:44;17.10;62.20
65231;DHT22;51813;40.666;16.602;2023-03-01T01:11:10;17.10;62.20
65231;DHT22;51813;40.666;16.602;2023-03-01T01:13:37;17.10;62.20
65231;DHT22;51813;40.666;16.602;2023-03-01T01:16:03;17.10;62.20
65231;DHT22;51813;40.666;16.602;2023-03-01T01:18:29;17.10;62.10
65231;DHT22;51813;40.666;16.602;2023-03-01T01:20:55;17.00;62.30
65231;DHT22;51813;40.666;16.602;2023-03-01T01:23:21;17.10;62.30
65231;DHT22;51813;40.666;16.602;2023-03-01T01:25:46;17.00;62.20
65231;DHT22;51813;40.666;16.602;2023-03-01T01:28:12;17.00;63.00
65231;DHT22;51813;40.666;16.602;2023-03-01T01:30:37;17.10;62.20
65231;DHT22;51813;40.666;16.602;2023-03-01T01:33:03;17.10;62.20
65231;DHT22;51813;40.666;16.602;2023-03-01T01:35:29;17.10;62.20
65231;DHT22;51813;40.666;16.602;2023-03-01T01:37:54;17.10;62.10
65231;DHT22;51813;40.666;16.602;2023-03-01T01:40:20;17.10;62.10
65231;DHT22;51813;40.666;16.602;2023-03-01T01:42:46;17.10;62.10
65231;DHT22;51813;40.666;16.602;2023-03-01T01:45:31;17.10;62.10
65231;DHT22;51813;40.666;16.602;2023-03-01T01:48:03;17.10;62.10
65231;DHT22;51813;40.666;16.602;2023-03-01T01:50:30;17.10;62.10
65231;DHT22;51813;40.666;16.602;2023-03-01T01:53:05;17.10;62.10
65231;DHT22;51813;40.666;16.602;2023-03-01T01:55:31;17.10;62.10
65231;DHT22;51813;40.666;16.602;2023-03-01T01:58:01;17.10;62.20
65231;DHT22;51813;40.666;16.602;2023-03-01T02:00:29;17.10;62.20
65231;DHT22;51813;40.666;16.602;2023-03-01T02:02:57;17.10;63.00
65231;DHT22;51813;40.666;16.602;2023-03-01T02:08:27;17.10;62.30
65231;DHT22;51813;40.666;16.602;2023-03-01T02:10:56;17.00;62.20
65231;DHT22;51813;40.666;16.602;2023-03-01T02:13:23;17.10;62.30
65231;DHT22;51813;40.666;16.602;2023-03-01T02:15:49;17.10;62.30
65231;DHT22;51813;40.666;16.602;2023-03-01T02:18:17;17.10;63.10
65231;DHT22;51813;40.666;16.602;2023-03-01T02:23:28;17.10;62.30
65231;DHT22;51813;40.666;16.602;2023-03-01T02:28:45;17.10;62.20
65231;DHT22;51813;40.666;16.602;2023-03-01T02:31:16;17.10;62.30
65231;DHT22;51813;40.666;16.602;2023-03-01T02:34:02;17.00;62.30
65231;DHT22;51813;40.666;16.602;2023-03-01T02:36:36;17.00;62.30
65231;DHT22;51813;40.666;16.602;2023-03-01T02:39:05;17.00;62.30
65231;DHT22;51813;40.666;16.602;2023-03-01T02:41:42;17.00;62.30
65231;DHT22;51813;40.666;16.602;2023-03-01T02:44:08;17.00;62.30
65231;DHT22;51813;40.666;16.602;2023-03-01T02:46:41;17.00;62.30
65231;DHT22;51813;40.666;16.602;2023-03-01T02:51:48;17.00;62.30
65231;DHT22;51813;40.666;16.602;2023-03-01T02:54:29;17.00;62.20
65231;DHT22;51813;40.666;16.602;2023-03-01T02:56:56;17.00;62.30
65231;DHT22;51813;40.666;16.602;2023-03-01T02:59:28;17.00;62.20
65231;DHT22;51813;40.666;16.602;2023-03-01T03:01:56;17.00;62.30
65231;DHT22;51813;40.666;16.602;2023-03-01T03:04:21;17.10;63.00
65231;DHT22;51813;40.666;16.602;2023-03-01T03:06:49;17.00;63.00
65231;DHT22;51813;40.666;16.602;2023-03-01T03:09:16;17.00;62.30
65231;DHT22;51813;40.666;16.602;2023-03-01T03:11:43;17.00;62.30
65231;DHT22;51813;40.666;16.602;2023-03-01T03:14:10;17.00;62.30
65231;DHT22;51813;40.666;16.602;2023-03-01T03:16:46;17.00;62.30
65231;DHT22;51813;40.666;16.602;2023-03-01T03:19:13;17.00;62.30
65231;DHT22;51813;40.666;16.602;2023-03-01T03:21:39;17.00;62.30
65231;DHT22;51813;40.666;16.602;2023-03-01T03:24:05;17.00;62.40
65231;DHT22;51813;40.666;16.602;2023-03-01T03:26:30;17.00;62.40
65231;DHT22;51813;40.666;16.602;2023-03-01T03:28:56;17.00;62.40
65231;DHT22;51813;40.666;16.602;2023-03-01T03:31:22;17.00;62.40
65231;DHT22;51813;40.666;16.602;2023-03-01T03:33:48;17.00;62.50
65231;DHT22;51813;40.666;16.602;2023-03-01T03:36:19;16.90;62.40
65231;DHT22;51813;40.666;16.602;2023-03-01T03:38:44;17.00;62.40
65231;DHT22;51813;40.666;16.602;2023-03-01T03:41:11;17.00;62.50
65231;DHT22;51813;40.666;16.602;2023-03-01T03:43:39;17.00;62.40
65231;DHT22;51813;40.666;16.602;2023-03-01T03:46:06;16.90;62.40
65231;DHT22;51813;40.666;16.602;2023-03-01T03:48:37;17.00;62.40
65231;DHT22;51813;40.666;16.602;2023-03-01T03:51:03;16.90;62.50
65231;DHT22;51813;40.666;16.602;2023-03-01T03:53:32;16.90;62.40
65231;DHT22;51813;40.666;16.602;2023-03-01T03:55:58;16.90;62.50
65231;DHT22;51813;40.666;16.602;2023-03-01T03:58:25;16.90;62.50
65231;DHT22;51813;40.666;16.602;2023-03-01T04:00:53;16.90;62.40
65231;DHT22;51813;40.666;16.602;2023-03-01T04:03:21;16.90;62.50
65231;DHT22;51813;40.666;16.602;2023-03-01T04:05:47;16.90;62.50
65231;DHT22;51813;40.666;16.602;2023-03-01T04:08:15;16.90;62.50
65231;DHT22;51813;40.666;16.602;2023-03-01T04:10:46;16.90;62.50
65231;DHT22;51813;40.666;16.602;2023-03-01T04:13:15;16.90;62.40
65231;DHT22;51813;40.666;16.602;2023-03-01T04:15:41;16.90;62.40
65231;DHT22;51813;40.666;16.602;2023-03-01T04:18:15;16.90;62.40
65231;DHT22;51813;40.666;16.602;2023-03-01T04:20:41;16.90;62.40
65231;DHT22;51813;40.666;16.602;2023-03-01T04:23:08;16.90;62.40
65231;DHT22;51813;40.666;16.602;2023-03-01T04:25:55;16.90;62.40
65231;DHT22;51813;40.666;16.602;2023-03-01T04:28:23;16.90;62.30
65231;DHT22;51813;40.666;16.602;2023-03-01T04:30:53;16.90;62.30
65231;DHT22;51813;40.666;16.602;2023-03-01T04:33:20;16.90;62.30
65231;DHT22;51813;40.666;16.602;2023-03-01T04:35:46;16.90;62.30
65231;DHT22;51813;40.666;16.602;2023-03-01T04:38:15;16.90;62.20
65231;DHT22;51813;40.666;16.602;2023-03-01T04:40:41;16.90;62.20
65231;DHT22;51813;40.666;16.602;2023-03-01T04:43:09;16.90;62.30
65231;DHT22;51813;40.666;16.602;2023-03-01T04:45:35;16.90;62.10
65231;DHT22;51813;40.666;16.602;2023-03-01T04:48:02;16.90;62.20
65231;DHT22;51813;40.666;16.602;2023-03-01T04:50:28;16.90;62.10
65231;DHT22;51813;40.666;16.602;2023-03-01T04:52:54;16.80;62.00
65231;DHT22;51813;40.666;16.602;2023-03-01T04:55:24;16.80;62.00
65231;DHT22;51813;40.666;16.602;2023-03-01T04:57:51;16.90;62.00
65231;DHT22;51813;40.666;16.602;2023-03-01T05:00:17;16.80;61.90
65231;DHT22;51813;40.666;16.602;2023-03-01T05:03:11;16.80;61.90
65231;DHT22;51813;40.666;16.602;2023-03-01T05:05:38;16.80;61.80
65231;DHT22;51813;40.666;16.602;2023-03-01T05:08:06;16.80;61.70
65231;DHT22;51813;40.666;16.602;2023-03-01T05:10:34;16.90;61.70
65231;DHT22;51813;40.666;16.602;2023-03-01T05:13:01;16.80;61.60
65231;DHT22;51813;40.666;16.602;2023-03-01T05:15:29;16.80;61.40
65231;DHT22;51813;40.666;16.602;2023-03-01T05:17:56;16.80;61.40
65231;DHT22;51813;40.666;16.602;2023-03-01T05:20:24;16.80;61.30
65231;DHT22;51813;40.666;16.602;2023-03-01T05:22:50;16.80;61.40
65231;DHT22;51813;40.666;16.602;2023-03-01T05:25:16;16.80;61.40
65231;DHT22;51813;40.666;16.602;2023-03-01T05:27:43;16.80;61.40
65231;DHT22;51813;40.666;16.602;2023-03-01T05:30:09;16.80;61.40
65231;DHT22;51813;40.666;16.602;2023-03-01T05:32:46;16.80;61.30
65231;DHT22;51813;40.666;16.602;2023-03-01T05:35:13;16.80;61.30
65231;DHT22;51813;40.666;16.602;2023-03-01T05:37:41;16.80;61.30
65231;DHT22;51813;40.666;16.602;2023-03-01T05:40:09;16.80;61.30
65231;DHT22;51813;40.666;16.602;2023-03-01T05:42:44;16.80;61.40
65231;DHT22;51813;40.666;16.602;2023-03-01T05:45:11;16.80;61.30
65231;DHT22;51813;40.666;16.602;2023-03-01T05:47:38;16.80;61.30
65231;DHT22;51813;40.666;16.602;2023-03-01T05:50:10;16.80;61.30
65231;DHT22;51813;40.666;16.602;2023-03-01T05:52:35;16.80;61.30
65231;DHT22;51813;40.666;16.602;2023-03-01T05:55:01;16.80;61.30
65231;DHT22;51813;40.666;16.602;2023-03-01T05:57:28;16.80;61.30
65231;DHT22;51813;40.666;16.602;2023-03-01T05:59:54;16.80;61.30
65231;DHT22;51813;40.666;16.602;2023-03-01T06:02:20;16.80;62.00
65231;DHT22;51813;40.666;16.602;2023-03-01T06:04:45;16.80;61.10
65231;DHT22;51813;40.666;16.602;2023-03-01T06:07:11;16.80;61.10
65231;DHT22;51813;40.666;16.602;2023-03-01T06:09:36;16.70;60.90
65231;DHT22;51813;40.666;16.602;2023-03-01T06:12:02;16.70;61.30
65231;DHT22;51813;40.666;16.602;2023-03-01T06:14:28;16.70;61.00
65231;DHT22;51813;40.666;16.602;2023-03-01T06:16:54;16.70;61.10
65231;DHT22;51813;40.666;16.602;2023-03-01T06:19:19;16.70;61.10
65231;DHT22;51813;40.666;16.602;2023-03-01T06:21:45;16.80;61.10
65231;DHT22;51813;40.666;16.602;2023-03-01T06:24:10;16.80;61.00
65231;DHT22;51813;40.666;16.602;2023-03-01T06:26:36;16.80;60.80
65231;DHT22;51813;40.666;16.602;2023-03-01T06:29:02;16.80;61.00
65231;DHT22;51813;40.666;16.602;2023-03-01T06:31:27;16.80;60.90
65231;DHT22;51813;40.666;16.602;2023-03-01T06:33:53;16.80;60.90
65231;DHT22;51813;40.666;16.602;2023-03-01T06:36:19;16.80;60.90
65231;DHT22;51813;40.666;16.602;2023-03-01T06:38:46;16.80;60.90
65231;DHT22;51813;40.666;16.602;2023-03-01T06:41:12;16.80;61.00
65231;DHT22;51813;40.666;16.602;2023-03-01T06:43:37;16.80;60.80
65231;DHT22;51813;40.666;16.602;2023-03-01T06:46:05;16.70;60.90
65231;DHT22;51813;40.666;16.602;2023-03-01T06:48:32;16.70;61.00
65231;DHT22;51813;40.666;16.602;2023-03-01T06:50:59;16.70;61.00
65231;DHT22;51813;40.666;16.602;2023-03-01T06:53:27;16.70;61.00
65231;DHT22;51813;40.666;16.602;2023-03-01T06:55:59;16.70;61.10
65231;DHT22;51813;40.666;16.602;2023-03-01T06:58:26;16.70;61.00
65231;DHT22;51813;40.666;16.602;2023-03-01T07:00:51;16.70;60.90
65231;DHT22;51813;40.666;16.602;2023-03-01T07:03:17;16.80;61.10
65231;DHT22;51813;40.666;16.602;2023-03-01T07:05:43;16.80;61.80
65231;DHT22;51813;40.666;16.602;2023-03-01T07:08:10;16.80;61.10
65231;DHT22;51813;40.666;16.602;2023-03-01T07:10:35;16.80;61.00
65231;DHT22;51813;40.666;16.602;2023-03-01T07:13:01;16.80;61.10
65231;DHT22;51813;40.666;16.602;2023-03-01T07:15:27;16.80;61.10
65231;DHT22;51813;40.666;16.602;2023-03-01T07:17:53;16.80;61.20
65231;DHT22;51813;40.666;16.602;2023-03-01T07:20:20;16.70;61.10
65231;DHT22;51813;40.666;16.602;2023-03-01T07:22:51;16.80;61.30
65231;DHT22;51813;40.666;16.602;2023-03-01T07:25:17;16.80;61.20
65231;DHT22;51813;40.666;16.602;2023-03-01T07:27:42;16.80;61.10
65231;DHT22;51813;40.666;16.602;2023-03-01T07:30:10;16.80;61.20
65231;DHT22;51813;40.666;16.602;2023-03-01T07:32:36;16.80;61.20
65231;DHT22;51813;40.666;16.602;2023-03-01T07:35:02;16.80;61.30
65231;DHT22;51813;40.666;16.602;2023-03-01T07:37:28;16.80;61.20
65231;DHT22;51813;40.666;16.602;2023-03-01T07:39:53;16.80;61.20
65231;DHT22;51813;40.666;16.602;2023-03-01T07:42:19;16.80;61.30
65231;DHT22;51813;40.666;16.602;2023-03-01T07:44:45;16.80;61.20
65231;DHT22;51813;40.666;16.602;2023-03-01T07:47:10;16.80;61.20
65231;DHT22;51813;40.666;16.602;2023-03-01T07:49:36;16.80;61.20
65231;DHT22;51813;40.666;16.602;2023-03-01T07:52:01;16.80;61.30
65231;DHT22;51813;40.666;16.602;2023-03-01T07:54:27;16.80;61.30
65231;DHT22;51813;40.666;16.602;2023-03-01T07:56:53;16.80;61.40
65231;DHT22;51813;40.666;16.602;2023-03-01T07:59:20;16.80;61.40
65231;DHT22;51813;40.666;16.602;2023-03-01T08:01:45;16.80;61.40
65231;DHT22;51813;40.666;16.602;2023-03-01T08:04:11;16.80;61.30
65231;DHT22;51813;40.666;16.602;2023-03-01T08:06:37;16.80;61.20
65231;DHT22;51813;40.666;16.602;2023-03-01T08:09:02;16.80;61.20
65231;DHT22;51813;40.666;16.602;2023-03-01T08:11:28;16.80;61.30
65231;DHT22;51813;40.666;16.602;2023-03-01T08:13:54;16.80;61.30
65231;DHT22;51813;40.666;16.602;2023-03-01T08:16:20;16.80;61.40
65231;DHT22;51813;40.666;16.602;2023-03-01T08:18:46;16.80;61.40
65231;DHT22;51813;40.666;16.602;2023-03-01T08:21:14;16.80;61.30
65231;DHT22;51813;40.666;16.602;2023-03-01T08:23:41;16.80;61.30
65231;DHT22;51813;40.666;16.602;2023-03-01T08:26:16;16.90;61.20
65231;DHT22;51813;40.666;16.602;2023-03-01T08:28:44;16.90;61.20
65231;DHT22;51813;40.666;16.602;2023-03-01T08:33:44;16.90;61.30
65231;DHT22;51813;40.666;16.602;2023-03-01T08:36:10;16.90;61.30
65231;DHT22;51813;40.666;16.602;2023-03-01T08:38:35;16.80;61.20
65231;DHT22;51813;40.666;16.602;2023-03-01T08:41:04;16.80;61.20
65231;DHT22;51813;40.666;16.602;2023-03-01T08:43:30;16.80;61.20
65231;DHT22;51813;40.666;16.602;2023-03-01T08:45:56;16.80;61.30
65231;DHT22;51813;40.666;16.602;2023-03-01T08:48:22;16.80;61.30
65231;DHT22;51813;40.666;16.602;2023-03-01T08:50:47;16.80;61.20
65231;DHT22;51813;40.666;16.602;2023-03-01T08:53:13;16.80;61.20
65231;DHT22;51813;40.666;16.602;2023-03-01T08:55:39;16.80;61.20
65231;DHT22;51813;40.666;16.602;2023-03-01T08:58:04;16.80;61.20
65231;DHT22;51813;40.666;16.602;2023-03-01T09:00:30;16.80;61.20
65231;DHT22;51813;40.666;16.602;2023-03-01T09:02:55;16.80;61.20
65231;DHT22;51813;40.666;16.602;2023-03-01T09:05:21;16.90;61.20
65231;DHT22;51813;40.666;16.602;2023-03-01T09:07:47;16.80;61.30
65231;DHT22;51813;40.666;16.602;2023-03-01T09:10:12;16.80;61.30
65231;DHT22;51813;40.666;16.602;2023-03-01T09:12:38;16.90;61.40
65231;DHT22;51813;40.666;16.602;2023-03-01T09:15:04;16.80;61.20
65231;DHT22;51813;40.666;16.602;2023-03-01T09:17:30;16.80;61.20
65231;DHT22;51813;40.666;16.602;2023-03-01T09:19:55;16.80;61.40
65231;DHT22;51813;40.666;16.602;2023-03-01T09:22:21;16.80;61.30
65231;DHT22;51813;40.666;16.602;2023-03-01T09:24:46;16.90;61.30
65231;DHT22;51813;40.666;16.602;2023-03-01T09:27:12;16.90;61.30
65231;DHT22;51813;40.666;16.602;2023-03-01T09:29:40;16.80;61.10
65231;DHT22;51813;40.666;16.602;2023-03-01T09:32:05;16.80;61.10
65231;DHT22;51813;40.666;16.602;2023-03-01T09:34:33;16.80;61.00
65231;DHT22;51813;40.666;16.602;2023-03-01T09:37:19;16.80;61.40
65231;DHT22;51813;40.666;16.602;2023-03-01T09:39:44;16.80;61.20
65231;DHT22;51813;40.666;16.602;2023-03-01T09:42:12;16.80;60.70
65231;DHT22;51813;40.666;16.602;2023-03-01T09:44:42;16.80;60.60
65231;DHT22;51813;40.666;16.602;2023-03-01T09:47:16;16.80;59.60
65231;DHT22;51813;40.666;16.602;2023-03-01T09:49:43;16.80;59.00
65231;DHT22;51813;40.666;16.602;2023-03-01T09:52:42;16.80;58.60
65231;DHT22;51813;40.666;16.602;2023-03-01T09:58:26;16.80;57.60
65231;DHT22;51813;40.666;16.602;2023-03-01T10:00:48;16.90;57.30
65231;DHT22;51813;40.666;16.602;2023-03-01T10:03:28;16.90;57.60
65231;DHT22;51813;40.666;16.602;2023-03-01T10:06:01;16.90;56.80
65231;DHT22;51813;40.666;16.602;2023-03-01T10:14:05;17.00;56.70
65231;DHT22;51813;40.666;16.602;2023-03-01T10:19:05;17.00;56.80
65231;DHT22;51813;40.666;16.602;2023-03-01T10:21:36;17.00;56.40
65231;DHT22;51813;40.666;16.602;2023-03-01T10:24:12;17.00;56.50
65231;DHT22;51813;40.666;16.602;2023-03-01T10:26:40;17.00;56.70
65231;DHT22;51813;40.666;16.602;2023-03-01T10:29:09;17.10;57.00
65231;DHT22;51813;40.666;16.602;2023-03-01T10:31:40;17.10;57.10
65231;DHT22;51813;40.666;16.602;2023-03-01T10:34:14;17.10;57.40
65231;DHT22;51813;40.666;16.602;2023-03-01T10:36:42;17.10;57.40
65231;DHT22;51813;40.666;16.602;2023-03-01T10:39:17;17.10;58.50
65231;DHT22;51813;40.666;16.602;2023-03-01T10:41:56;17.10;58.60
65231;DHT22;51813;40.666;16.602;2023-03-01T10:44:41;17.10;58.20
65231;DHT22;51813;40.666;16.602;2023-03-01T10:47:14;17.10;57.90
65231;DHT22;51813;40.666;16.602;2023-03-01T10:52:20;17.10;58.70
65231;DHT22;51813;40.666;16.602;2023-03-01T10:54:59;17.10;58.30
65231;DHT22;51813;40.666;16.602;2023-03-01T10:57:35;17.20;58.20
65231;DHT22;51813;40.666;16.602;2023-03-01T11:02:50;17.10;58.10
65231;DHT22;51813;40.666;16.602;2023-03-01T11:05:21;17.10;58.60
65231;DHT22;51813;40.666;16.602;2023-03-01T11:07:53;17.10;58.50
65231;DHT22;51813;40.666;16.602;2023-03-01T11:12:51;17.20;58.00
65231;DHT22;51813;40.666;16.602;2023-03-01T11:15:28;17.20;57.50
65231;DHT22;51813;40.666;16.602;2023-03-01T11:17:56;17.20;57.30
65231;DHT22;51813;40.666;16.602;2023-03-01T11:20:27;17.20;57.40
65231;DHT22;51813;40.666;16.602;2023-03-01T11:22:57;17.20;58.00
65231;DHT22;51813;40.666;16.602;2023-03-01T11:25:26;17.20;58.20
65231;DHT22;51813;40.666;16.602;2023-03-01T11:27:54;17.20;58.00
65231;DHT22;51813;40.666;16.602;2023-03-01T11:37:09;17.20;57.80
65231;DHT22;51813;40.666;16.602;2023-03-01T11:39:31;17.20;57.70
65231;DHT22;51813;40.666;16.602;2023-03-01T11:45:08;17.20;57.30
65231;DHT22;51813;40.666;16.602;2023-03-01T11:58:54;17.20;57.90
65231;DHT22;51813;40.666;16.602;2023-03-01T12:04:09;17.20;57.60
65231;DHT22;51813;40.666;16.602;2023-03-01T12:18:17;17.20;58.20
65231;DHT22;51813;40.666;16.602;2023-03-01T12:26:40;17.30;58.50
65231;DHT22;51813;40.666;16.602;2023-03-01T12:29:25;17.30;58.50
65231;DHT22;51813;40.666;16.602;2023-03-01T12:32:02;17.30;58.70
65231;DHT22;51813;40.666;16.602;2023-03-01T12:51:09;17.30;59.10
65231;DHT22;51813;40.666;16.602;2023-03-01T12:53:43;17.30;59.10
65231;DHT22;51813;40.666;16.602;2023-03-01T12:56:13;17.30;59.20
65231;DHT22;51813;40.666;16.602;2023-03-01T13:01:38;17.30;59.30
65231;DHT22;51813;40.666;16.602;2023-03-01T13:04:35;17.30;59.40
65231;DHT22;51813;40.666;16.602;2023-03-01T13:17:51;17.30;59.70
65231;DHT22;51813;40.666;16.602;2023-03-01T13:20:30;17.30;59.70
65231;DHT22;51813;40.666;16.602;2023-03-01T13:23:47;17.30;59.80
65231;DHT22;51813;40.666;16.602;2023-03-01T13:30:57;17.30;59.90
65231;DHT22;51813;40.666;16.602;2023-03-01T13:35:55;17.30;59.90
65231;DHT22;51813;40.666;16.602;2023-03-01T13:41:16;17.30;59.90
65231;DHT22;51813;40.666;16.602;2023-03-01T13:43:44;17.30;59.90
65231;DHT22;51813;40.666;16.602;2023-03-01T13:46:23;17.30;59.90
65231;DHT22;51813;40.666;16.602;2023-03-01T13:48:54;17.30;59.90
65231;DHT22;51813;40.666;16.602;2023-03-01T13:51:26;17.30;60.60
65231;DHT22;51813;40.666;16.602;2023-03-01T13:53:54;17.30;59.90
65231;DHT22;51813;40.666;16.602;2023-03-01T13:56:36;17.30;59.90
65231;DHT22;51813;40.666;16.602;2023-03-01T13:59:05;17.30;59.90
65231;DHT22;51813;40.666;16.602;2023-03-01T14:01:34;17.30;59.90
65231;DHT22;51813;40.666;16.602;2023-03-01T14:04:01;17.30;59.90
65231;DHT22;51813;40.666;16.602;2023-03-01T14:06:30;17.30;59.90
65231;DHT22;51813;40.666;16.602;2023-03-01T14:09:27;17.30;59.90
65231;DHT22;51813;40.666;16.602;2023-03-01T14:15:39;17.40;60.80
65231;DHT22;51813;40.666;16.602;2023-03-01T14:20:26;17.50;60.30
65231;DHT22;51813;40.666;16.602;2023-03-01T14:22:55;17.60;59.80
65231;DHT22;51813;40.666;16.602;2023-03-01T14:25:28;17.80;59.30
65231;DHT22;51813;40.666;16.602;2023-03-01T14:28:19;18.00;58.90
65231;DHT22;51813;40.666;16.602;2023-03-01T14:30:50;18.10;59.20
65231;DHT22;51813;40.666;16.602;2023-03-01T14:33:33;18.20;57.70
65231;DHT22;51813;40.666;16.602;2023-03-01T14:36:12;18.40;57.20
65231;DHT22;51813;40.666;16.602;2023-03-01T14:38:41;18.50;57.20
65231;DHT22;51813;40.666;16.602;2023-03-01T14:41:19;18.60;56.60
65231;DHT22;51813;40.666;16.602;2023-03-01T14:43:56;18.80;56.50
65231;DHT22;51813;40.666;16.602;2023-03-01T14:46:30;18.80;56.30
65231;DHT22;51813;40.666;16.602;2023-03-01T14:49:04;19.00;55.80
65231;DHT22;51813;40.666;16.602;2023-03-01T14:51:40;19.00;55.60
65231;DHT22;51813;40.666;16.602;2023-03-01T14:54:23;19.10;55.50
65231;DHT22;51813;40.666;16.602;2023-03-01T14:56:51;19.20;55.40
65231;DHT22;51813;40.666;16.602;2023-03-01T14:59:21;19.30;54.80
65231;DHT22;51813;40.666;16.602;2023-03-01T15:01:48;19.40;55.20
65231;DHT22;51813;40.666;16.602;2023-03-01T15:04:14;19.30;54.80
65231;DHT22;51813;40.666;16.602;2023-03-01T15:06:41;19.40;55.20
65231;DHT22;51813;40.666;16.602;2023-03-01T15:09:11;19.50;54.90
65231;DHT22;51813;40.666;16.602;2023-03-01T15:11:37;19.60;54.60
65231;DHT22;51813;40.666;16.602;2023-03-01T15:14:36;19.60;54.50
65231;DHT22;51813;40.666;16.602;2023-03-01T15:17:03;19.70;54.20
65231;DHT22;51813;40.666;16.602;2023-03-01T15:19:29;19.70;54.20
65231;DHT22;51813;40.666;16.602;2023-03-01T15:21:55;19.70;54.10
65231;DHT22;51813;40.666;16.602;2023-03-01T15:24:25;19.80;54.20
65231;DHT22;51813;40.666;16.602;2023-03-01T15:26:59;19.70;54.30
65231;DHT22;51813;40.666;16.602;2023-03-01T15:29:32;19.80;54.10
65231;DHT22;51813;40.666;16.602;2023-03-01T15:32:04;19.90;53.90
65231;DHT22;51813;40.666;16.602;2023-03-01T15:34:36;20.00;53.80
65231;DHT22;51813;40.666;16.602;2023-03-01T15:37:04;20.00;53.60
65231;DHT22;51813;40.666;16.602;2023-03-01T15:39:38;20.00;53.70
65231;DHT22;51813;40.666;16.602;2023-03-01T15:47:57;19.90;54.40
65231;DHT22;51813;40.666;16.602;2023-03-01T15:50:28;20.00;54.20
65231;DHT22;51813;40.666;16.602;2023-03-01T15:52:56;19.80;54.90
65231;DHT22;51813;40.666;16.602;2023-03-01T15:55:29;19.80;54.80
65231;DHT22;51813;40.666;16.602;2023-03-01T15:58:15;19.90;54.10
65231;DHT22;51813;40.666;16.602;2023-03-01T16:00:41;19.90;53.50
65231;DHT22;51813;40.666;16.602;2023-03-01T16:03:12;19.80;53.20
65231;DHT22;51813;40.666;16.602;2023-03-01T16:05:38;19.80;53.20
65231;DHT22;51813;40.666;16.602;2023-03-01T16:08:05;19.70;53.80
65231;DHT22;51813;40.666;16.602;2023-03-01T16:10:32;19.70;53.50
65231;DHT22;51813;40.666;16.602;2023-03-01T16:12:58;19.60;53.70
65231;DHT22;51813;40.666;16.602;2023-03-01T16:15:28;19.50;53.70
65231;DHT22;51813;40.666;16.602;2023-03-01T16:17:54;19.50;54.30
65231;DHT22;51813;40.666;16.602;2023-03-01T16:20:20;19.50;54.20
65231;DHT22;51813;40.666;16.602;2023-03-01T16:22:46;19.50;54.20
65231;DHT22;51813;40.666;16.602;2023-03-01T16:25:14;19.50;54.20
65231;DHT22;51813;40.666;16.602;2023-03-01T16:27:44;19.50;54.30
65231;DHT22;51813;40.666;16.602;2023-03-01T16:30:12;19.50;54.50
65231;DHT22;51813;40.666;16.602;2023-03-01T16:32:39;19.50;54.50
65231;DHT22;51813;40.666;16.602;2023-03-01T16:35:06;19.50;54.70
65231;DHT22;51813;40.666;16.602;2023-03-01T16:37:33;19.50;54.80
65231;DHT22;51813;40.666;16.602;2023-03-01T16:39:59;19.50;54.90
65231;DHT22;51813;40.666;16.602;2023-03-01T16:42:24;19.40;54.90
65231;DHT22;51813;40.666;16.602;2023-03-01T16:44:56;19.40;55.00
65231;DHT22;51813;40.666;16.602;2023-03-01T16:47:22;19.40;55.20
65231;DHT22;51813;40.666;16.602;2023-03-01T16:49:51;19.30;55.30
65231;DHT22;51813;40.666;16.602;2023-03-01T16:52:17;19.30;55.40
65231;DHT22;51813;40.666;16.602;2023-03-01T16:54:43;19.30;55.30
65231;DHT22;51813;40.666;16.602;2023-03-01T16:57:09;19.30;55.20
65231;DHT22;51813;40.666;16.602;2023-03-01T16:59:34;19.30;55.30
65231;DHT22;51813;40.666;16.602;2023-03-01T17:02:00;19.30;55.20
65231;DHT22;51813;40.666;16.602;2023-03-01T17:04:26;19.30;55.20
65231;DHT22;51813;40.666;16.602;2023-03-01T17:06:51;19.20;55.30
65231;DHT22;51813;40.666;16.602;2023-03-01T17:09:17;19.20;55.50
65231;DHT22;51813;40.666;16.602;2023-03-01T17:11:43;19.20;55.60
65231;DHT22;51813;40.666;16.602;2023-03-01T17:14:09;19.20;55.60
65231;DHT22;51813;40.666;16.602;2023-03-01T17:16:34;19.20;55.70
65231;DHT22;51813;40.666;16.602;2023-03-01T17:19:01;19.20;55.70
65231;DHT22;51813;40.666;16.602;2023-03-01T17:21:27;19.20;55.70
65231;DHT22;51813;40.666;16.602;2023-03-01T17:23:56;19.20;55.90
65231;DHT22;51813;40.666;16.602;2023-03-01T17:26:22;19.30;56.40
65231;DHT22;51813;40.666;16.602;2023-03-01T17:28:48;19.30;56.10
65231;DHT22;51813;40.666;16.602;2023-03-01T17:31:17;19.30;56.20
65231;DHT22;51813;40.666;16.602;2023-03-01T17:33:43;19.30;56.20